createdAt,value
2019-01-23T00:00:40.110Z,1.8
2019-01-23T00:01:29.590Z,1.8
2019-01-23T00:02:20.204Z,1.9
2019-01-23T00:03:09.727Z,1.9
2019-01-23T00:04:00.034Z,1.9
2019-01-23T00:04:50.372Z,1.9
2019-01-23T00:05:40.162Z,1.9
2019-01-23T00:06:29.382Z,1.9
2019-01-23T00:07:20.260Z,1.9
2019-01-23T00:08:10.052Z,1.9
2019-01-23T00:09:00.120Z,1.9
2019-01-23T00:09:50.725Z,1.9
2019-01-23T00:10:40.785Z,1.9
2019-01-23T00:11:30.606Z,1.9
2019-01-23T00:12:20.652Z,1.9
2019-01-23T00:13:10.946Z,1.9
2019-01-23T00:14:01.049Z,1.9
2019-01-23T00:14:51.098Z,1.9
2019-01-23T00:15:40.850Z,1.9
2019-01-23T00:16:31.179Z,1.9
2019-01-23T00:17:20.964Z,1.9
2019-01-23T00:18:10.739Z,1.9
2019-01-23T00:19:01.079Z,2
2019-01-23T00:19:50.849Z,2
2019-01-23T00:20:41.472Z,2
2019-01-23T00:21:31.254Z,2
2019-01-23T00:22:21.306Z,2
2019-01-23T00:23:11.361Z,2
2019-01-23T00:24:01.687Z,2
2019-01-23T00:24:51.481Z,2
2019-01-23T00:25:41.531Z,2
2019-01-23T00:26:31.594Z,2
2019-01-23T00:27:21.642Z,2.1
2019-01-23T00:28:11.701Z,2
2019-01-23T00:29:01.506Z,2
2019-01-23T00:29:51.541Z,2
2019-01-23T00:30:41.889Z,2.1
2019-01-23T00:31:32.218Z,2.1
2019-01-23T00:32:21.988Z,2.1
2019-01-23T00:33:12.043Z,2.1
2019-01-23T00:34:02.108Z,2.1
2019-01-23T00:34:52.441Z,2.1
2019-01-23T00:35:41.956Z,2.1
2019-01-23T00:36:32.583Z,2.1
2019-01-23T00:37:22.375Z,2.1
2019-01-23T00:38:12.396Z,2.1
2019-01-23T00:39:02.730Z,2.1
2019-01-23T00:40:07.450Z,2.1
2019-01-23T00:40:42.581Z,2.1
2019-01-23T00:41:32.628Z,2.1
2019-01-23T00:42:22.985Z,2.1
2019-01-23T00:43:12.748Z,2.1
2019-01-23T00:44:03.120Z,2.1
2019-01-23T00:44:53.135Z,2.1
2019-01-23T00:45:42.933Z,2.1
2019-01-23T00:46:32.706Z,2.1
2019-01-23T00:47:23.030Z,2.1
2019-01-23T00:48:13.367Z,2.1
2019-01-23T00:49:03.465Z,2.1
2019-01-23T00:49:53.198Z,2.1
2019-01-23T00:50:43.284Z,2.1
2019-01-23T00:51:33.025Z,2.1
2019-01-23T00:52:23.642Z,2.1
2019-01-23T00:53:13.438Z,2.1
2019-01-23T00:54:03.479Z,2.1
2019-01-23T00:54:53.534Z,2.1
2019-01-23T00:55:43.874Z,2.1
2019-01-23T00:56:33.659Z,2.1
2019-01-23T00:57:23.710Z,2.1
2019-01-23T00:58:13.764Z,2.1
2019-01-23T00:59:03.554Z,2.1
2019-01-23T00:59:54.209Z,2.1
2019-01-23T01:00:44.235Z,2.1
2019-01-23T01:01:33.732Z,2.1
2019-01-23T01:02:24.374Z,2.1
2019-01-23T01:03:14.384Z,2.1
2019-01-23T01:04:04.699Z,2.1
2019-01-23T01:04:54.241Z,2.1
2019-01-23T01:05:44.291Z,2.1
2019-01-23T01:06:34.361Z,2.1
2019-01-23T01:07:24.681Z,2.1
2019-01-23T01:08:14.464Z,2.1
2019-01-23T01:09:04.243Z,2.1
2019-01-23T01:09:54.018Z,2.1
2019-01-23T01:10:44.730Z,2.1
2019-01-23T01:11:34.688Z,2.1
2019-01-23T01:12:25.021Z,2.1
2019-01-23T01:13:15.080Z,2
2019-01-23T01:14:04.345Z,2.1
2019-01-23T01:14:55.202Z,2.1
2019-01-23T01:15:44.708Z,2.1
2019-01-23T01:16:35.303Z,2.1
2019-01-23T01:17:25.091Z,2
2019-01-23T01:18:15.425Z,2.1
2019-01-23T01:19:05.480Z,2.1
2019-01-23T01:19:55.561Z,2.1
2019-01-23T01:20:45.313Z,2.1
2019-01-23T01:21:35.361Z,2.1
2019-01-23T01:22:25.433Z,2.1
2019-01-23T01:23:15.762Z,2.1
2019-01-23T01:24:05.278Z,2.1
2019-01-23T01:24:55.617Z,2.1
2019-01-23T01:25:45.938Z,2.1
2019-01-23T01:26:35.715Z,2.1
2019-01-23T01:27:25.223Z,2.1
2019-01-23T01:28:15.570Z,2.1
2019-01-23T01:29:06.177Z,2.1
2019-01-23T01:29:55.957Z,2.1
2019-01-23T01:30:46.018Z,2.1
2019-01-23T01:31:36.345Z,2.1
2019-01-23T01:32:26.122Z,2.1
2019-01-23T01:33:15.910Z,2.1
2019-01-23T01:34:06.231Z,2.1
2019-01-23T01:34:56.304Z,2.1
2019-01-23T01:35:46.360Z,2.1
2019-01-23T01:36:35.577Z,2.1
2019-01-23T01:37:26.787Z,2.1
2019-01-23T01:38:16.517Z,2.1
2019-01-23T01:39:06.582Z,2.1
2019-01-23T01:39:56.650Z,2.1
2019-01-23T01:40:46.969Z,2.1
2019-01-23T01:41:36.758Z,2.1
2019-01-23T01:42:26.807Z,2.1
2019-01-23T01:43:16.869Z,2.1
2019-01-23T01:44:06.917Z,2.1
2019-01-23T01:44:57.032Z,2.1
2019-01-23T01:45:47.321Z,2.1
2019-01-23T01:46:37.096Z,2.1
2019-01-23T01:47:27.421Z,2.1
2019-01-23T01:48:17.224Z,2.1
2019-01-23T01:49:07.291Z,2.1
2019-01-23T01:49:57.604Z,2.1
2019-01-23T01:50:47.123Z,2.1
2019-01-23T01:51:37.501Z,2.1
2019-01-23T01:52:27.488Z,2
2019-01-23T01:53:17.598Z,2.1
2019-01-23T01:54:07.895Z,2.1
2019-01-23T01:54:57.938Z,2
2019-01-23T01:55:48.008Z,2
2019-01-23T01:56:37.783Z,2
2019-01-23T01:57:28.118Z,2
2019-01-23T01:58:17.893Z,1.9
2019-01-23T01:59:07.975Z,2
2019-01-23T01:59:58.034Z,2
2019-01-23T02:00:47.797Z,1.9
2019-01-23T02:01:38.408Z,1.9
2019-01-23T02:02:28.517Z,1.9
2019-01-23T02:03:18.736Z,1.9
2019-01-23T02:04:08.590Z,1.9
2019-01-23T02:04:58.632Z,1.9
2019-01-23T02:05:48.697Z,1.9
2019-01-23T02:06:38.202Z,1.9
2019-01-23T02:07:28.545Z,1.9
2019-01-23T02:08:18.322Z,1.9
2019-01-23T02:09:08.372Z,1.9
2019-01-23T02:09:59.032Z,1.8
2019-01-23T02:10:49.037Z,1.9
2019-01-23T02:11:38.833Z,1.9
2019-01-23T02:12:29.140Z,1.8
2019-01-23T02:13:19.217Z,1.8
2019-01-23T02:14:09.270Z,1.8
2019-01-23T02:14:58.764Z,1.8
2019-01-23T02:15:49.430Z,1.8
2019-01-23T02:16:39.161Z,1.7
2019-01-23T02:17:29.214Z,1.7
2019-01-23T02:18:19.281Z,1.7
2019-01-23T02:19:09.049Z,1.6
2019-01-23T02:19:59.121Z,1.7
2019-01-23T02:20:49.729Z,1.6
2019-01-23T02:21:39.793Z,1.6
2019-01-23T02:22:29.297Z,1.6
2019-01-23T02:23:19.885Z,1.6
2019-01-23T02:24:09.694Z,1.6
2019-01-23T02:24:59.738Z,1.6
2019-01-23T02:25:50.073Z,1.6
2019-01-23T02:26:39.578Z,1.6
2019-01-23T02:27:29.901Z,1.6
2019-01-23T02:28:19.991Z,1.6
2019-01-23T02:29:12.333Z,1.6
2019-01-23T02:30:00.415Z,1.6
2019-01-23T02:30:49.853Z,1.6
2019-01-23T02:31:40.477Z,1.6
2019-01-23T02:32:30.531Z,1.6
2019-01-23T02:33:20.604Z,1.6
2019-01-23T02:34:10.101Z,1.6
2019-01-23T02:34:59.611Z,1.6
2019-01-23T02:35:50.514Z,1.6
2019-01-23T02:36:40.853Z,1.6
2019-01-23T02:37:30.075Z,1.6
2019-01-23T02:38:20.948Z,1.6
2019-01-23T02:39:11.011Z,1.6
2019-01-23T02:40:01.288Z,1.6
2019-01-23T02:40:50.553Z,1.6
2019-01-23T02:41:41.196Z,1.6
2019-01-23T02:42:31.230Z,1.6
2019-01-23T02:43:21.295Z,1.6
2019-01-23T02:44:11.361Z,1.6
2019-01-23T02:45:01.413Z,1.6
2019-01-23T02:45:51.237Z,1.6
2019-01-23T02:46:41.537Z,1.6
2019-01-23T02:47:31.013Z,1.6
2019-01-23T02:48:21.643Z,1.6
2019-01-23T02:49:11.747Z,1.6
2019-01-23T02:50:01.457Z,1.6
2019-01-23T02:50:51.802Z,1.6
2019-01-23T02:51:41.594Z,1.6
2019-01-23T02:52:31.960Z,1.6
2019-01-23T02:53:21.725Z,1.6
2019-01-23T02:54:11.784Z,1.6
2019-01-23T02:55:02.037Z,1.6
2019-01-23T02:55:51.869Z,1.6
2019-01-23T02:56:41.663Z,1.6
2019-01-23T02:57:32.252Z,1.6
2019-01-23T02:58:22.060Z,1.6
2019-01-23T02:59:19.455Z,1.6
2019-01-23T03:00:01.887Z,1.6
2019-01-23T03:00:52.524Z,1.6
2019-01-23T03:01:42.007Z,1.6
2019-01-23T03:02:32.614Z,1.6
2019-01-23T03:03:22.909Z,1.6
2019-01-23T03:04:12.504Z,1.6
2019-01-23T03:05:02.808Z,1.6
2019-01-23T03:08:35.577Z,1.6
2019-01-23T03:09:25.107Z,1.6
2019-01-23T03:10:15.703Z,1.6
2019-01-23T03:11:05.794Z,1.6
2019-01-23T03:11:55.811Z,1.6
2019-01-23T03:12:45.882Z,1.7
2019-01-23T03:13:35.923Z,1.7
2019-01-23T03:14:25.971Z,1.7
2019-01-23T03:15:15.477Z,1.7
2019-01-23T03:16:06.085Z,1.7
2019-01-23T03:16:55.871Z,1.7
2019-01-23T03:17:46.005Z,1.7
2019-01-23T03:18:35.984Z,1.6
2019-01-23T03:19:26.315Z,1.6
2019-01-23T03:20:16.107Z,1.6
2019-01-23T03:21:06.450Z,1.6
2019-01-23T03:21:56.219Z,1.6
2019-01-23T03:22:46.562Z,1.6
2019-01-23T03:23:36.590Z,1.6
2019-01-23T03:24:26.387Z,1.6
2019-01-23T03:25:16.730Z,1.6
2019-01-23T03:26:06.500Z,1.6
2019-01-23T03:26:56.548Z,1.6
2019-01-23T03:27:46.932Z,1.6
2019-01-23T03:28:36.965Z,1.6
2019-01-23T03:29:27.638Z,1.6
2019-01-23T03:30:17.156Z,1.6
2019-01-23T03:31:07.248Z,1.6
2019-01-23T03:31:57.285Z,1.6
2019-01-23T03:32:47.426Z,1.6
2019-01-23T03:33:37.034Z,1.6
2019-01-23T03:34:27.364Z,1.6
2019-01-23T03:35:17.160Z,1.6
2019-01-23T03:36:07.464Z,1.6
2019-01-23T03:36:57.244Z,1.6
2019-01-23T03:37:47.296Z,1.6
2019-01-23T03:38:37.374Z,1.6
2019-01-23T03:39:27.136Z,1.6
2019-01-23T03:40:17.478Z,1.6
2019-01-23T03:41:07.522Z,1.6
2019-01-23T03:41:57.846Z,1.6
2019-01-23T03:42:47.959Z,1.6
2019-01-23T03:43:37.686Z,1.5
2019-01-23T03:44:28.087Z,1.5
2019-01-23T03:45:18.180Z,1.4
2019-01-23T03:46:08.137Z,1.4
2019-01-23T03:46:58.186Z,1.4
2019-01-23T03:47:47.709Z,1.4
2019-01-23T03:48:38.036Z,1.4
2019-01-23T03:49:28.385Z,1.4
2019-01-23T03:50:18.427Z,1.4
2019-01-23T03:51:08.489Z,1.4
2019-01-23T03:51:58.570Z,1.4
2019-01-23T03:52:48.648Z,1.4
2019-01-23T03:53:38.370Z,1.4
2019-01-23T03:54:28.739Z,1.4
2019-01-23T03:55:18.510Z,1.4
2019-01-23T03:56:08.823Z,1.4
2019-01-23T03:56:58.875Z,1.4
2019-01-23T03:57:48.664Z,1.4
2019-01-23T03:58:38.999Z,1.4
2019-01-23T03:59:34.924Z,1.4
2019-01-23T04:00:20.480Z,1.4
2019-01-23T04:01:09.243Z,1.3
2019-01-23T04:01:59.212Z,1.3
2019-01-23T04:02:49.309Z,1.3
2019-01-23T04:03:38.775Z,1.3
2019-01-23T04:04:28.844Z,1.3
2019-01-23T04:05:19.221Z,1.3
2019-01-23T04:06:09.515Z,1.3
2019-01-23T04:06:59.590Z,1.3
2019-01-23T04:07:48.804Z,1.3
2019-01-23T04:08:39.680Z,1.3
2019-01-23T04:09:29.746Z,1.4
2019-01-23T04:10:19.547Z,1.3
2019-01-23T04:11:09.575Z,1.3
2019-01-23T04:11:59.891Z,1.3
2019-01-23T04:12:49.990Z,1.3
2019-01-23T04:13:40.020Z,1.3
2019-01-23T04:14:29.517Z,1.3
2019-01-23T04:15:20.134Z,1.2
2019-01-23T04:16:10.196Z,1.2
2019-01-23T04:16:59.948Z,1.2
2019-01-23T04:17:50.303Z,1.1
2019-01-23T04:18:40.367Z,1.1
2019-01-23T04:19:30.417Z,1.1
2019-01-23T04:20:19.984Z,1.1
2019-01-23T04:21:10.244Z,1.1
2019-01-23T04:22:00.321Z,1.1
2019-01-23T04:22:50.662Z,1.1
2019-01-23T04:23:40.716Z,1.1
2019-01-23T04:24:30.774Z,1.1
2019-01-23T04:25:20.669Z,1.1
2019-01-23T04:26:10.643Z,1.1
2019-01-23T04:27:00.641Z,1
2019-01-23T04:27:50.994Z,1
2019-01-23T04:28:41.042Z,1
2019-01-23T04:29:30.837Z,0.9
2019-01-23T04:30:20.924Z,0.9
2019-01-23T04:31:12.071Z,0.9
2019-01-23T04:32:01.001Z,0.9
2019-01-23T04:32:51.454Z,1
2019-01-23T04:33:41.413Z,1.1
2019-01-23T04:34:30.897Z,1
2019-01-23T04:35:20.998Z,0.9
2019-01-23T04:36:11.558Z,0.9
2019-01-23T04:37:01.655Z,0.9
2019-01-23T04:37:51.709Z,0.9
2019-01-23T04:38:41.496Z,0.9
2019-01-23T04:39:31.794Z,1
2019-01-23T04:40:21.598Z,1
2019-01-23T04:41:11.903Z,0.9
2019-01-23T04:42:01.998Z,0.8
2019-01-23T04:42:52.036Z,0.8
2019-01-23T04:43:42.065Z,0.8
2019-01-23T04:44:31.842Z,0.8
2019-01-23T04:45:21.645Z,0.8
2019-01-23T04:46:11.968Z,0.8
2019-01-23T04:47:02.303Z,0.7
2019-01-23T04:47:52.080Z,0.6
2019-01-23T04:48:42.140Z,0.7
2019-01-23T04:49:32.474Z,0.9
2019-01-23T04:50:22.535Z,0.9
2019-01-23T04:51:12.306Z,0.9
2019-01-23T04:52:02.655Z,0.9
2019-01-23T04:52:52.690Z,0.9
2019-01-23T04:53:42.476Z,0.9
2019-01-23T04:54:32.805Z,0.9
2019-01-23T04:55:22.319Z,0.9
2019-01-23T04:56:12.652Z,0.9
2019-01-23T04:57:03.042Z,0.9
2019-01-23T04:57:53.074Z,0.9
2019-01-23T04:58:42.833Z,1
2019-01-23T04:59:32.880Z,1
2019-01-23T05:00:23.219Z,0.9
2019-01-23T05:01:13.301Z,0.9
2019-01-23T05:02:03.388Z,1
2019-01-23T05:02:53.775Z,1
2019-01-23T05:03:43.152Z,1
2019-01-23T05:04:33.494Z,0.9
2019-01-23T05:05:23.549Z,0.9
2019-01-23T05:06:13.324Z,0.9
2019-01-23T05:07:03.676Z,0.9
2019-01-23T05:07:53.494Z,0.9
2019-01-23T05:08:43.503Z,1
2019-01-23T05:09:33.828Z,1
2019-01-23T05:10:23.635Z,0.9
2019-01-23T05:11:13.973Z,0.9
2019-01-23T05:12:03.508Z,0.9
2019-01-23T05:12:53.851Z,0.9
2019-01-23T05:13:44.113Z,0.8
2019-01-23T05:14:33.671Z,0.8
2019-01-23T05:15:24.236Z,0.8
2019-01-23T05:16:14.286Z,0.7
2019-01-23T05:17:03.798Z,0.7
2019-01-23T05:17:54.453Z,0.7
2019-01-23T05:18:44.211Z,0.6
2019-01-23T05:19:34.237Z,0.5
2019-01-23T05:20:24.595Z,0.4
2019-01-23T05:21:16.211Z,0.4
2019-01-23T05:22:04.698Z,0.4
2019-01-23T05:22:54.478Z,0.3
2019-01-23T05:23:44.803Z,0.4
2019-01-23T05:24:34.939Z,0.4
2019-01-23T05:25:24.944Z,0.4
2019-01-23T05:26:14.705Z,0.4
2019-01-23T05:27:05.038Z,0.4
2019-01-23T05:27:55.112Z,0.5
2019-01-23T05:28:45.144Z,0.6
2019-01-23T05:29:35.203Z,0.6
2019-01-23T05:30:25.287Z,0.7
2019-01-23T05:31:15.082Z,0.6
2019-01-23T05:32:05.781Z,0.6
2019-01-23T05:32:55.485Z,0.5
2019-01-23T05:33:45.217Z,0.6
2019-01-23T05:34:35.625Z,0.6
2019-01-23T05:35:25.674Z,0.6
2019-01-23T05:36:15.672Z,0.6
2019-01-23T05:37:05.439Z,0.5
2019-01-23T05:37:55.212Z,0.4
2019-01-23T05:38:45.829Z,0.4
2019-01-23T05:39:35.594Z,0.4
2019-01-23T05:40:25.942Z,0.4
2019-01-23T05:41:15.450Z,0.3
2019-01-23T05:42:05.555Z,0.1
2019-01-23T05:42:55.649Z,0.2
2019-01-23T05:43:45.692Z,0.2
2019-01-23T05:44:35.755Z,0.3
2019-01-23T05:45:25.544Z,0.3
2019-01-23T05:46:15.842Z,0.3
2019-01-23T05:47:05.921Z,0.3
2019-01-23T05:47:55.954Z,0.3
2019-01-23T05:48:46.021Z,0.3
2019-01-23T05:49:36.077Z,0.3
2019-01-23T05:50:25.877Z,0.3
2019-01-23T05:51:15.913Z,0.4
2019-01-23T05:52:05.961Z,0.5
2019-01-23T05:52:56.295Z,0.5
2019-01-23T05:53:46.081Z,0.6
2019-01-23T05:54:36.411Z,0.6
2019-01-23T05:55:26.472Z,0.8
2019-01-23T05:56:16.266Z,0.8
2019-01-23T05:57:06.803Z,0.8
2019-01-23T05:57:56.428Z,0.8
2019-01-23T05:58:46.428Z,0.8
2019-01-23T05:59:36.748Z,0.8
2019-01-23T06:00:27.305Z,0.8
2019-01-23T06:01:16.783Z,0.7
2019-01-23T06:02:06.928Z,0.6
2019-01-23T06:02:56.728Z,0.5
2019-01-23T06:03:46.754Z,0.4
2019-01-23T06:04:37.295Z,0.4
2019-01-23T06:06:34.709Z,0.6
2019-01-23T06:07:24.445Z,0.6
2019-01-23T06:08:15.044Z,0.6
2019-01-23T06:09:04.830Z,0.6
2019-01-23T06:09:55.652Z,0.6
2019-01-23T06:10:45.695Z,0.6
2019-01-23T06:11:35.750Z,0.7
2019-01-23T06:12:25.862Z,0.7
2019-01-23T06:13:15.663Z,0.6
2019-01-23T06:14:05.914Z,0.6
2019-01-23T06:14:55.997Z,0.6
2019-01-23T06:15:46.057Z,0.6
2019-01-23T06:16:36.102Z,0.6
2019-01-23T06:17:25.867Z,0.6
2019-01-23T06:18:16.207Z,0.6
2019-01-23T06:19:06.270Z,0.6
2019-01-23T06:19:56.319Z,0.6
2019-01-23T06:20:46.421Z,0.6
2019-01-23T06:21:36.152Z,0.7
2019-01-23T06:22:26.497Z,0.6
2019-01-23T06:23:15.982Z,0.6
2019-01-23T06:24:06.344Z,0.6
2019-01-23T06:24:56.661Z,0.6
2019-01-23T06:25:46.777Z,0.4
2019-01-23T06:26:36.779Z,0.4
2019-01-23T06:27:27.040Z,0.4
2019-01-23T06:28:16.906Z,0.4
2019-01-23T06:29:06.669Z,0.4
2019-01-23T06:29:57.026Z,0.5
2019-01-23T06:30:47.064Z,0.5
2019-01-23T06:31:38.585Z,0.6
2019-01-23T06:32:26.637Z,0.6
2019-01-23T06:33:17.267Z,0.6
2019-01-23T06:34:07.269Z,0.6
2019-01-23T06:34:57.333Z,0.6
2019-01-23T06:35:47.402Z,0.5
2019-01-23T06:36:37.168Z,0.5
2019-01-23T06:37:27.518Z,0.6
2019-01-23T06:38:17.558Z,0.6
2019-01-23T06:39:07.346Z,0.6
2019-01-23T06:39:57.393Z,0.6
2019-01-23T06:40:47.454Z,0.6
2019-01-23T06:41:37.503Z,0.6
2019-01-23T06:42:27.848Z,0.6
2019-01-23T06:43:17.632Z,0.7
2019-01-23T06:44:07.675Z,0.8
2019-01-23T06:44:58.016Z,0.8
2019-01-23T06:45:48.065Z,0.8
2019-01-23T06:46:37.879Z,0.8
2019-01-23T06:47:28.176Z,0.7
2019-01-23T06:48:17.960Z,0.8
2019-01-23T06:49:08.055Z,0.8
2019-01-23T06:49:59.838Z,0.8
2019-01-23T06:50:48.451Z,0.8
2019-01-23T06:51:38.483Z,0.8
2019-01-23T06:52:27.970Z,0.8
2019-01-23T06:53:18.590Z,0.8
2019-01-23T06:54:08.365Z,0.9
2019-01-23T06:54:58.450Z,0.9
2019-01-23T06:55:48.742Z,0.9
2019-01-23T06:56:38.845Z,1
2019-01-23T06:57:28.589Z,1
2019-01-23T06:58:18.645Z,1
2019-01-23T06:59:08.972Z,1.1
2019-01-23T06:59:59.045Z,1.1
2019-01-23T07:00:49.084Z,1.2
2019-01-23T07:01:39.147Z,1.2
2019-01-23T07:02:29.202Z,1.3
2019-01-23T07:03:19.063Z,1.3
2019-01-23T07:04:09.329Z,1.3
2019-01-23T07:06:35.361Z,1.4
2019-01-23T07:07:25.142Z,1.4
2019-01-23T07:08:15.218Z,1.4
2019-01-23T07:09:05.574Z,1.5
2019-01-23T07:09:55.583Z,1.5
2019-01-23T07:10:45.641Z,1.5
2019-01-23T07:11:35.144Z,1.5
2019-01-23T07:12:25.761Z,1.6
2019-01-23T07:13:15.816Z,1.6
2019-01-23T07:14:05.879Z,1.6
2019-01-23T07:14:55.965Z,1.5
2019-01-23T07:15:45.726Z,1.5
2019-01-23T07:16:36.048Z,1.5
2019-01-23T07:17:25.806Z,1.5
2019-01-23T07:18:16.153Z,1.5
2019-01-23T07:19:05.986Z,1.6
2019-01-23T07:19:56.003Z,1.6
2019-01-23T07:20:46.041Z,1.6
2019-01-23T07:21:36.113Z,1.6
2019-01-23T07:22:26.173Z,1.6
2019-01-23T07:23:16.498Z,1.6
2019-01-23T07:24:06.550Z,1.6
2019-01-23T07:24:56.598Z,1.6
2019-01-23T07:25:46.668Z,1.6
2019-01-23T07:26:36.492Z,1.6
2019-01-23T07:27:26.976Z,1.6
2019-01-23T07:28:16.567Z,1.5
2019-01-23T07:29:06.895Z,1.5
2019-01-23T07:29:56.935Z,1.6
2019-01-23T07:30:47.003Z,1.6
2019-01-23T07:31:37.075Z,1.6
2019-01-23T07:32:27.115Z,1.6
2019-01-23T07:33:16.919Z,1.6
2019-01-23T07:34:07.240Z,1.6
2019-01-23T07:34:57.285Z,1.6
2019-01-23T07:35:47.369Z,1.6
2019-01-23T07:36:37.415Z,1.6
2019-01-23T07:37:27.454Z,1.5
2019-01-23T07:38:17.514Z,1.5
2019-01-23T07:39:07.297Z,1.5
2019-01-23T07:39:57.363Z,1.5
2019-01-23T07:40:47.419Z,1.5
2019-01-23T07:41:37.741Z,1.5
2019-01-23T07:42:27.797Z,1.5
2019-01-23T07:43:17.569Z,1.5
2019-01-23T07:44:07.637Z,1.6
2019-01-23T07:44:57.684Z,1.6
2019-01-23T07:45:48.026Z,1.6
2019-01-23T07:46:38.071Z,1.6
2019-01-23T07:47:27.587Z,1.6
2019-01-23T07:48:19.504Z,1.6
2019-01-23T07:49:08.257Z,1.7
2019-01-23T07:49:58.303Z,1.7
2019-01-23T07:50:48.140Z,1.7
2019-01-23T07:51:38.454Z,1.8
2019-01-23T07:52:27.914Z,1.8
2019-01-23T07:53:17.976Z,1.9
2019-01-23T07:54:08.583Z,2
2019-01-23T07:54:58.651Z,2
2019-01-23T07:55:48.706Z,2
2019-01-23T07:56:38.756Z,2.1
2019-01-23T07:57:28.270Z,2.1
2019-01-23T07:58:18.866Z,2.1
2019-01-23T07:59:10.141Z,2.1
2019-01-23T07:59:58.978Z,2.1
2019-01-23T08:00:48.756Z,2.1
2019-01-23T08:01:38.825Z,2.2
2019-01-23T08:02:29.190Z,2.3
2019-01-23T08:03:19.216Z,2.4
2019-01-23T08:04:08.986Z,2.4
2019-01-23T08:04:59.046Z,2.4
2019-01-23T08:05:48.833Z,2.4
2019-01-23T08:06:39.185Z,2.4
2019-01-23T08:07:29.491Z,2.4
2019-01-23T08:08:19.260Z,2.4
2019-01-23T08:09:09.537Z,2.4
2019-01-23T08:09:59.662Z,2.3
2019-01-23T08:10:49.435Z,2.3
2019-01-23T08:11:39.500Z,2.4
2019-01-23T08:12:29.840Z,2.4
2019-01-23T08:13:20.521Z,2.4
2019-01-23T08:14:09.978Z,2.4
2019-01-23T08:15:00.000Z,2.5
2019-01-23T08:15:49.785Z,2.6
2019-01-23T08:16:40.120Z,2.6
2019-01-23T08:17:35.863Z,2.6
2019-01-23T08:18:20.227Z,2.7
2019-01-23T08:19:10.279Z,2.7
2019-01-23T08:20:00.063Z,2.8
2019-01-23T08:20:50.405Z,2.8
2019-01-23T08:21:40.449Z,2.8
2019-01-23T08:22:30.499Z,2.8
2019-01-23T08:23:20.572Z,2.8
2019-01-23T08:24:10.352Z,2.9
2019-01-23T08:25:00.742Z,2.9
2019-01-23T08:25:50.739Z,3.1
2019-01-23T08:26:40.534Z,3.3
2019-01-23T08:27:30.859Z,3.4
2019-01-23T08:28:20.907Z,3.5
2019-01-23T08:29:10.977Z,3.6
2019-01-23T08:30:00.749Z,3.6
2019-01-23T08:30:51.076Z,3.6
2019-01-23T08:31:41.126Z,3.6
2019-01-23T08:32:31.214Z,3.6
2019-01-23T08:33:21.262Z,3.6
2019-01-23T08:34:10.757Z,3.8
2019-01-23T08:35:01.372Z,3.8
2019-01-23T08:35:50.876Z,4
2019-01-23T08:36:41.196Z,4.3
2019-01-23T08:37:31.543Z,4.4
2019-01-23T08:38:21.598Z,4.7
2019-01-23T08:39:11.406Z,4.9
2019-01-23T08:40:01.796Z,5.2
2019-01-23T08:40:51.473Z,5.3
2019-01-23T08:41:41.534Z,5.2
2019-01-23T08:42:31.593Z,5.1
2019-01-23T08:43:21.933Z,5.2
2019-01-23T08:44:11.713Z,5.3
2019-01-23T08:45:02.183Z,5.3
2019-01-23T08:45:51.838Z,5.4
2019-01-23T08:46:41.894Z,5.7
2019-01-23T08:47:31.928Z,5.9
2019-01-23T08:48:22.261Z,6.2
2019-01-23T08:49:12.057Z,6.3
2019-01-23T08:50:02.408Z,6.3
2019-01-23T08:50:52.440Z,6.1
2019-01-23T08:51:42.503Z,5.9
2019-01-23T08:52:32.558Z,5.9
2019-01-23T08:53:22.602Z,5.5
2019-01-23T08:54:12.677Z,5.3
2019-01-23T08:55:02.463Z,5.1
2019-01-23T08:55:56.839Z,4.8
2019-01-23T08:56:42.840Z,4.6
2019-01-23T08:57:32.900Z,4.3
2019-01-23T08:58:22.963Z,4.4
2019-01-23T08:59:12.738Z,4.6
2019-01-23T09:00:02.892Z,4.8
2019-01-23T09:00:53.124Z,4.9
2019-01-23T09:01:43.242Z,4.9
2019-01-23T09:02:33.227Z,4.9
2019-01-23T09:03:22.752Z,4.5
2019-01-23T09:04:13.357Z,4.5
2019-01-23T09:05:03.147Z,4.4
2019-01-23T09:05:53.249Z,4.4
2019-01-23T09:06:43.252Z,4.6
2019-01-23T09:07:33.566Z,4.8
2019-01-23T09:08:23.374Z,5
2019-01-23T09:09:13.676Z,4.9
2019-01-23T09:10:03.479Z,4.9
2019-01-23T09:10:53.255Z,5.3
2019-01-23T09:11:43.856Z,5.5
2019-01-23T09:12:33.924Z,5.1
2019-01-23T09:13:23.451Z,5.3
2019-01-23T09:14:14.025Z,5.5
2019-01-23T09:15:03.809Z,5.9
2019-01-23T09:15:54.143Z,6.2
2019-01-23T09:16:44.256Z,6.4
2019-01-23T09:17:33.716Z,6.4
2019-01-23T09:18:24.352Z,6.6
2019-01-23T09:19:13.816Z,6.3
2019-01-23T09:20:04.441Z,6.1
2019-01-23T09:20:54.218Z,6.4
2019-01-23T09:21:44.270Z,6.7
2019-01-23T09:22:34.603Z,6.6
2019-01-23T09:23:24.650Z,6.6
2019-01-23T09:24:14.713Z,6.4
2019-01-23T09:25:04.785Z,6.4
2019-01-23T09:25:54.550Z,6.4
2019-01-23T09:26:44.616Z,5.9
2019-01-23T09:27:34.958Z,5.7
2019-01-23T09:28:24.726Z,6
2019-01-23T09:29:14.803Z,6.2
2019-01-23T09:30:05.136Z,5.9
2019-01-23T09:30:57.060Z,6.1
2019-01-23T09:31:45.225Z,6.3
2019-01-23T09:32:35.290Z,6.3
2019-01-23T09:33:25.355Z,5.9
2019-01-23T09:34:15.122Z,6
2019-01-23T09:35:05.252Z,5.6
2019-01-23T09:35:55.232Z,5.8
2019-01-23T09:36:45.305Z,5.9
2019-01-23T09:37:35.625Z,5.8
2019-01-23T09:38:25.440Z,5.9
2019-01-23T09:39:15.464Z,6.1
2019-01-23T09:40:05.794Z,6.3
2019-01-23T09:40:55.597Z,6.5
2019-01-23T09:41:45.647Z,6.7
2019-01-23T09:42:35.987Z,6.8
2019-01-23T09:43:25.762Z,6.8
2019-01-23T09:44:16.089Z,6.7
2019-01-23T09:45:05.877Z,6.6
2019-01-23T09:45:56.196Z,6.4
2019-01-23T09:46:46.266Z,6.1
2019-01-23T09:47:35.562Z,6.1
2019-01-23T09:48:26.369Z,6.1
2019-01-23T09:49:16.434Z,6
2019-01-23T09:50:06.489Z,5.9
2019-01-23T09:50:56.549Z,5.9
2019-01-23T09:51:46.638Z,5.9
2019-01-23T09:52:36.646Z,6
2019-01-23T09:53:26.866Z,6
2019-01-23T09:54:16.766Z,5.9
2019-01-23T09:55:06.551Z,5.9
2019-01-23T09:55:56.886Z,5.6
2019-01-23T09:56:46.388Z,5.8
2019-01-23T09:57:37.098Z,5.7
2019-01-23T09:58:27.063Z,5.8
2019-01-23T09:59:17.103Z,5.8
2019-01-23T10:00:07.170Z,5.7
2019-01-23T10:01:02.745Z,5.8
2019-01-23T10:01:47.285Z,5.7
2019-01-23T10:02:37.351Z,5.8
2019-01-23T10:03:27.395Z,5.8
2019-01-23T10:04:17.175Z,5.6
2019-01-23T10:05:07.520Z,5.3
2019-01-23T10:07:35.198Z,5.1
2019-01-23T10:08:24.967Z,5.1
2019-01-23T10:09:15.039Z,5.2
2019-01-23T10:10:05.414Z,5.3
2019-01-23T10:10:55.434Z,5.5
2019-01-23T10:11:44.932Z,5.4
2019-01-23T10:12:35.030Z,5.4
2019-01-23T10:13:25.044Z,5.4
2019-01-23T10:14:15.662Z,5.2
2019-01-23T10:15:05.158Z,5.1
2019-01-23T10:15:55.522Z,5.1
2019-01-23T10:16:45.839Z,5.1
2019-01-23T10:17:35.607Z,5.2
2019-01-23T10:18:25.664Z,5.1
2019-01-23T10:19:16.006Z,5.1
2019-01-23T10:20:06.071Z,5.2
2019-01-23T10:20:56.112Z,5.3
2019-01-23T10:21:46.202Z,5.4
2019-01-23T10:22:35.944Z,5.6
2019-01-23T10:23:25.999Z,5.4
2019-01-23T10:24:16.067Z,5.6
2019-01-23T10:25:05.842Z,5.9
2019-01-23T10:25:55.620Z,5.8
2019-01-23T10:26:46.512Z,5.7
2019-01-23T10:27:36.567Z,5.6
2019-01-23T10:28:27.618Z,5.5
2019-01-23T10:29:16.399Z,5.4
2019-01-23T10:30:06.746Z,5.5
2019-01-23T10:30:56.518Z,5.7
2019-01-23T10:31:46.348Z,5.9
2019-01-23T10:32:36.361Z,5.9
2019-01-23T10:33:26.751Z,5.8
2019-01-23T10:34:16.764Z,5.9
2019-01-23T10:35:06.541Z,5.9
2019-01-23T10:35:57.174Z,6.1
2019-01-23T10:36:47.213Z,6
2019-01-23T10:37:36.707Z,6.3
2019-01-23T10:38:26.998Z,6.2
2019-01-23T10:39:16.817Z,6.4
2019-01-23T10:40:07.183Z,6.5
2019-01-23T10:40:57.490Z,6.8
2019-01-23T10:41:47.281Z,7
2019-01-23T10:42:37.600Z,7.5
2019-01-23T10:43:26.841Z,7.6
2019-01-23T10:44:17.175Z,7.7
2019-01-23T10:45:07.495Z,7.4
2019-01-23T10:45:57.551Z,7.4
2019-01-23T10:46:47.322Z,7.7
2019-01-23T10:47:37.668Z,7.8
2019-01-23T10:48:27.750Z,7.8
2019-01-23T10:49:17.783Z,7.3
2019-01-23T10:50:07.850Z,6.8
2019-01-23T10:50:58.196Z,6.8
2019-01-23T10:51:47.969Z,6.7
2019-01-23T10:52:38.285Z,6.4
2019-01-23T10:53:27.785Z,6.5
2019-01-23T10:54:18.442Z,6.6
2019-01-23T10:55:08.465Z,6.7
2019-01-23T10:55:58.507Z,6.6
2019-01-23T10:56:48.022Z,6.6
2019-01-23T10:57:38.622Z,6.4
2019-01-23T10:58:28.132Z,6.6
2019-01-23T10:59:18.736Z,6.6
2019-01-23T11:00:08.532Z,6.6
2019-01-23T11:00:58.867Z,6.5
2019-01-23T11:01:48.644Z,6.3
2019-01-23T11:02:38.989Z,6.1
2019-01-23T11:03:29.024Z,5.9
2019-01-23T11:04:19.197Z,5.8
2019-01-23T11:05:08.866Z,6
2019-01-23T11:05:59.199Z,6.1
2019-01-23T11:06:49.269Z,5.8
2019-01-23T11:07:39.311Z,5.8
2019-01-23T11:08:29.077Z,5.8
2019-01-23T11:09:19.924Z,5.8
2019-01-23T11:10:09.206Z,5.9
2019-01-23T11:10:59.544Z,5.9
2019-01-23T11:11:49.131Z,6
2019-01-23T11:12:39.429Z,6
2019-01-23T11:13:29.156Z,6.1
2019-01-23T11:14:19.271Z,5.8
2019-01-23T11:15:09.850Z,5.8
2019-01-23T11:16:00.604Z,5.8
2019-01-23T11:16:49.665Z,5.8
2019-01-23T11:17:39.741Z,5.9
2019-01-23T11:18:30.074Z,5.8
2019-01-23T11:19:20.223Z,5.8
2019-01-23T11:20:10.178Z,5.9
2019-01-23T11:21:00.231Z,5.9
2019-01-23T11:21:50.026Z,5.8
2019-01-23T11:22:40.415Z,5.8
2019-01-23T11:23:30.187Z,5.9
2019-01-23T11:24:19.970Z,5.9
2019-01-23T11:25:10.242Z,5.9
2019-01-23T11:26:00.302Z,5.9
2019-01-23T11:26:50.432Z,5.9
2019-01-23T11:27:40.430Z,5.9
2019-01-23T11:28:30.184Z,5.9
2019-01-23T11:29:20.805Z,5.9
2019-01-23T11:30:10.595Z,5.8
2019-01-23T11:31:00.707Z,5.7
2019-01-23T11:31:50.720Z,5.7
2019-01-23T11:32:40.518Z,5.7
2019-01-23T11:33:31.112Z,5.9
2019-01-23T11:34:20.885Z,5.9
2019-01-23T11:35:10.730Z,5.8
2019-01-23T11:36:00.972Z,5.9
2019-01-23T11:36:50.782Z,6
2019-01-23T11:37:41.147Z,6.1
2019-01-23T11:38:31.169Z,6
2019-01-23T11:39:21.494Z,5.9